sensor_id;sensor_type;location;lat;lon;timestamp;pressure;altitude;pressure_sealevel;temperature;humidity
18504;BME280;9381;54.244;10.074;2023-04-26T00:01:29;100797.44;;;6.56;89.75
18504;BME280;9381;54.244;10.074;2023-04-26T00:06:29;100797.31;;;6.28;92.23
18504;BME280;9381;54.244;10.074;2023-04-26T00:11:30;100798.59;;;6.32;92.80
18504;BME280;9381;54.244;10.074;2023-04-26T00:16:30;100795.56;;;6.21;93.31
18504;BME280;9381;54.244;10.074;2023-04-26T00:21:30;100804.53;;;6.13;93.67
18504;BME280;9381;54.244;10.074;2023-04-26T00:26:31;100803.44;;;6.08;93.75
18504;BME280;9381;54.244;10.074;2023-04-26T00:31:33;100807.31;;;6.05;92.98
18504;BME280;9381;54.244;10.074;2023-04-26T00:36:33;100798.22;;;6.06;92.37
18504;BME280;9381;54.244;10.074;2023-04-26T00:41:34;100792.31;;;5.96;92.34
18504;BME280;9381;54.244;10.074;2023-04-26T00:46:34;100802.16;;;6.04;91.61
18504;BME280;9381;54.244;10.074;2023-04-26T00:51:35;100799.63;;;5.88;90.86
18504;BME280;9381;54.244;10.074;2023-04-26T00:56:36;100798.34;;;5.98;89.90
18504;BME280;9381;54.244;10.074;2023-04-26T01:01:37;100808.72;;;6.01;89.42
18504;BME280;9381;54.244;10.074;2023-04-26T01:06:39;100806.75;;;5.95;89.59
18504;BME280;9381;54.244;10.074;2023-04-26T01:11:41;100811.47;;;5.93;90.25
18504;BME280;9381;54.244;10.074;2023-04-26T01:16:42;100823.25;;;5.92;89.80
18504;BME280;9381;54.244;10.074;2023-04-26T01:21:46;100824.53;;;5.82;89.57
18504;BME280;9381;54.244;10.074;2023-04-26T01:26:46;100829.00;;;5.89;89.11
18504;BME280;9381;54.244;10.074;2023-04-26T01:31:47;100829.56;;;5.99;89.48
18504;BME280;9381;54.244;10.074;2023-04-26T01:36:47;100826.31;;;5.89;89.77
18504;BME280;9381;54.244;10.074;2023-04-26T01:41:48;100821.34;;;5.78;89.85
18504;BME280;9381;54.244;10.074;2023-04-26T01:46:48;100830.28;;;5.93;89.05
18504;BME280;9381;54.244;10.074;2023-04-26T01:51:49;100831.84;;;5.88;88.18
18504;BME280;9381;54.244;10.074;2023-04-26T01:56:49;100830.41;;;5.77;88.55
18504;BME280;9381;54.244;10.074;2023-04-26T02:01:50;100843.09;;;5.69;88.38
18504;BME280;9381;54.244;10.074;2023-04-26T02:06:50;100828.78;;;5.54;89.20
18504;BME280;9381;54.244;10.074;2023-04-26T02:11:50;100828.56;;;5.63;89.74
18504;BME280;9381;54.244;10.074;2023-04-26T02:16:50;100832.72;;;5.66;89.11
18504;BME280;9381;54.244;10.074;2023-04-26T02:21:55;100841.19;;;5.55;90.10
18504;BME280;9381;54.244;10.074;2023-04-26T02:26:56;100844.38;;;5.73;89.35
18504;BME280;9381;54.244;10.074;2023-04-26T02:32:03;100839.19;;;5.57;90.62
18504;BME280;9381;54.244;10.074;2023-04-26T02:37:04;100841.09;;;5.49;90.74
18504;BME280;9381;54.244;10.074;2023-04-26T02:42:08;100844.34;;;5.58;91.82
18504;BME280;9381;54.244;10.074;2023-04-26T02:47:09;100850.84;;;5.64;91.34
18504;BME280;9381;54.244;10.074;2023-04-26T02:52:10;100850.34;;;5.60;90.89
18504;BME280;9381;54.244;10.074;2023-04-26T02:57:10;100848.50;;;5.47;91.85
18504;BME280;9381;54.244;10.074;2023-04-26T03:02:10;100848.97;;;5.50;91.59
18504;BME280;9381;54.244;10.074;2023-04-26T03:07:11;100844.78;;;5.48;91.40
18504;BME280;9381;54.244;10.074;2023-04-26T03:12:11;100848.66;;;5.45;90.90
18504;BME280;9381;54.244;10.074;2023-04-26T03:17:11;100845.97;;;5.45;90.96
18504;BME280;9381;54.244;10.074;2023-04-26T03:22:12;100843.06;;;5.55;90.91
18504;BME280;9381;54.244;10.074;2023-04-26T03:27:15;100846.81;;;5.46;91.46
18504;BME280;9381;54.244;10.074;2023-04-26T03:32:15;100849.00;;;5.28;92.83
18504;BME280;9381;54.244;10.074;2023-04-26T03:37:15;100836.66;;;5.19;92.88
18504;BME280;9381;54.244;10.074;2023-04-26T03:42:16;100837.53;;;5.34;92.22
18504;BME280;9381;54.244;10.074;2023-04-26T03:47:16;100850.06;;;5.19;93.70
18504;BME280;9381;54.244;10.074;2023-04-26T03:52:16;100847.06;;;5.14;94.31
18504;BME280;9381;54.244;10.074;2023-04-26T03:57:17;100853.75;;;5.18;94.75
18504;BME280;9381;54.244;10.074;2023-04-26T04:02:17;100851.78;;;5.12;94.96
18504;BME280;9381;54.244;10.074;2023-04-26T04:07:17;100846.25;;;5.36;95.30
18504;BME280;9381;54.244;10.074;2023-04-26T04:12:18;100856.22;;;5.42;95.72
18504;BME280;9381;54.244;10.074;2023-04-26T04:17:18;100853.28;;;5.37;95.87
18504;BME280;9381;54.244;10.074;2023-04-26T04:22:18;100852.19;;;5.46;95.76
18504;BME280;9381;54.244;10.074;2023-04-26T04:27:19;100860.50;;;5.51;95.22
18504;BME280;9381;54.244;10.074;2023-04-26T04:32:21;100861.00;;;5.54;95.66
18504;BME280;9381;54.244;10.074;2023-04-26T04:37:22;100862.19;;;5.52;95.19
18504;BME280;9381;54.244;10.074;2023-04-26T04:42:24;100860.03;;;5.47;95.52
18504;BME280;9381;54.244;10.074;2023-04-26T04:47:26;100864.31;;;5.56;95.26
18504;BME280;9381;54.244;10.074;2023-04-26T04:52:26;100864.22;;;5.50;95.04
18504;BME280;9381;54.244;10.074;2023-04-26T04:57:27;100864.78;;;5.59;94.51
18504;BME280;9381;54.244;10.074;2023-04-26T05:02:27;100864.66;;;5.75;93.88
18504;BME280;9381;54.244;10.074;2023-04-26T05:07:27;100877.78;;;5.70;94.18
18504;BME280;9381;54.244;10.074;2023-04-26T05:12:28;100874.03;;;5.79;94.04
18504;BME280;9381;54.244;10.074;2023-04-26T05:17:28;100874.56;;;5.75;93.49
18504;BME280;9381;54.244;10.074;2023-04-26T05:22:31;100881.34;;;5.85;94.08
18504;BME280;9381;54.244;10.074;2023-04-26T05:27:34;100884.44;;;6.11;92.79
18504;BME280;9381;54.244;10.074;2023-04-26T05:32:35;100889.81;;;6.26;92.95
18504;BME280;9381;54.244;10.074;2023-04-26T05:37:36;100888.44;;;6.44;92.88
18504;BME280;9381;54.244;10.074;2023-04-26T05:42:36;100892.31;;;6.56;92.03
18504;BME280;9381;54.244;10.074;2023-04-26T05:47:36;100889.06;;;6.75;91.41
18504;BME280;9381;54.244;10.074;2023-04-26T05:52:37;100891.13;;;6.94;90.77
18504;BME280;9381;54.244;10.074;2023-04-26T05:57:38;100891.41;;;6.99;89.60
18504;BME280;9381;54.244;10.074;2023-04-26T06:02:38;100890.75;;;6.97;89.53
18504;BME280;9381;54.244;10.074;2023-04-26T06:07:38;100888.88;;;7.12;86.53
18504;BME280;9381;54.244;10.074;2023-04-26T06:12:39;100897.34;;;7.30;83.41
18504;BME280;9381;54.244;10.074;2023-04-26T06:17:40;100897.84;;;7.40;80.73
18504;BME280;9381;54.244;10.074;2023-04-26T06:22:41;100895.00;;;7.69;79.90
18504;BME280;9381;54.244;10.074;2023-04-26T06:27:41;100900.38;;;7.90;79.91
18504;BME280;9381;54.244;10.074;2023-04-26T06:32:43;100898.31;;;7.92;76.95
18504;BME280;9381;54.244;10.074;2023-04-26T06:37:43;100894.63;;;8.00;76.21
18504;BME280;9381;54.244;10.074;2023-04-26T06:42:43;100889.88;;;8.23;74.75
18504;BME280;9381;54.244;10.074;2023-04-26T06:47:43;100902.50;;;8.50;74.79
18504;BME280;9381;54.244;10.074;2023-04-26T06:52:44;100891.94;;;8.61;75.97
18504;BME280;9381;54.244;10.074;2023-04-26T06:57:44;100905.81;;;8.52;74.24
18504;BME280;9381;54.244;10.074;2023-04-26T07:02:44;100900.03;;;8.61;73.54
18504;BME280;9381;54.244;10.074;2023-04-26T07:07:45;100905.09;;;8.77;72.97
18504;BME280;9381;54.244;10.074;2023-04-26T07:12:45;100910.97;;;8.93;72.95
18504;BME280;9381;54.244;10.074;2023-04-26T07:17:46;100909.41;;;9.12;71.11
18504;BME280;9381;54.244;10.074;2023-04-26T07:22:46;100910.03;;;9.20;70.47
18504;BME280;9381;54.244;10.074;2023-04-26T07:27:46;100911.97;;;9.46;71.71
18504;BME280;9381;54.244;10.074;2023-04-26T07:32:47;100921.56;;;9.61;69.12
18504;BME280;9381;54.244;10.074;2023-04-26T07:37:47;100916.78;;;9.57;68.13
18504;BME280;9381;54.244;10.074;2023-04-26T07:42:47;100910.78;;;10.07;68.96
18504;BME280;9381;54.244;10.074;2023-04-26T07:47:48;100912.44;;;9.95;64.64
18504;BME280;9381;54.244;10.074;2023-04-26T07:52:48;100904.97;;;10.23;66.93
18504;BME280;9381;54.244;10.074;2023-04-26T07:57:48;100924.69;;;9.71;68.79
18504;BME280;9381;54.244;10.074;2023-04-26T08:02:48;100933.59;;;9.72;69.96
18504;BME280;9381;54.244;10.074;2023-04-26T08:07:49;100948.97;;;9.65;68.16
18504;BME280;9381;54.244;10.074;2023-04-26T08:12:49;100930.13;;;10.17;69.67
18504;BME280;9381;54.244;10.074;2023-04-26T08:17:49;100942.78;;;10.36;63.31
18504;BME280;9381;54.244;10.074;2023-04-26T08:22:55;100927.75;;;10.66;66.02
18504;BME280;9381;54.244;10.074;2023-04-26T08:27:56;100929.03;;;10.57;65.50
18504;BME280;9381;54.244;10.074;2023-04-26T08:32:56;100936.13;;;10.32;64.79
18504;BME280;9381;54.244;10.074;2023-04-26T08:37:57;100942.31;;;10.71;65.61
18504;BME280;9381;54.244;10.074;2023-04-26T08:42:57;100941.88;;;10.74;61.91
18504;BME280;9381;54.244;10.074;2023-04-26T08:48:02;100939.19;;;10.68;62.98
18504;BME280;9381;54.244;10.074;2023-04-26T08:53:04;100943.09;;;10.85;63.03
18504;BME280;9381;54.244;10.074;2023-04-26T08:58:05;100937.28;;;11.32;64.27
18504;BME280;9381;54.244;10.074;2023-04-26T09:03:06;100932.50;;;11.27;59.76
18504;BME280;9381;54.244;10.074;2023-04-26T09:08:07;100948.97;;;10.69;64.86
18504;BME280;9381;54.244;10.074;2023-04-26T09:13:08;100955.88;;;10.26;72.24
18504;BME280;9381;54.244;10.074;2023-04-26T09:18:19;100966.91;;;10.05;72.21
18504;BME280;9381;54.244;10.074;2023-04-26T09:23:20;100967.28;;;10.54;71.69
18504;BME280;9381;54.244;10.074;2023-04-26T09:28:22;100956.31;;;11.19;69.39
18504;BME280;9381;54.244;10.074;2023-04-26T09:33:22;100952.53;;;11.94;68.33
18504;BME280;9381;54.244;10.074;2023-04-26T09:38:23;100949.34;;;12.28;63.10
18504;BME280;9381;54.244;10.074;2023-04-26T09:43:23;100957.53;;;12.82;64.31
18504;BME280;9381;54.244;10.074;2023-04-26T09:53:34;100962.94;;;13.25;61.70
18504;BME280;9381;54.244;10.074;2023-04-26T09:58:37;100981.31;;;12.20;65.60
18504;BME280;9381;54.244;10.074;2023-04-26T10:03:38;100989.78;;;11.74;67.65
18504;BME280;9381;54.244;10.074;2023-04-26T10:08:39;101002.09;;;11.20;66.67
18504;BME280;9381;54.244;10.074;2023-04-26T10:13:40;101002.63;;;10.85;67.32
18504;BME280;9381;54.244;10.074;2023-04-26T10:18:41;101001.78;;;10.84;64.34
18504;BME280;9381;54.244;10.074;2023-04-26T10:23:41;100990.34;;;11.46;67.42
18504;BME280;9381;54.244;10.074;2023-04-26T10:34:18;100966.19;;;13.92;61.56
18504;BME280;9381;54.244;10.074;2023-04-26T10:39:19;100958.81;;;14.45;56.40
18504;BME280;9381;54.244;10.074;2023-04-26T10:44:40;100979.31;;;12.33;65.03
18504;BME280;9381;54.244;10.074;2023-04-26T10:49:45;100974.91;;;11.46;68.72
18504;BME280;9381;54.244;10.074;2023-04-26T10:54:48;100975.22;;;13.09;67.02
18504;BME280;9381;54.244;10.074;2023-04-26T11:10:38;100965.50;;;15.34;53.52
18504;BME280;9381;54.244;10.074;2023-04-26T11:15:39;100967.44;;;14.31;55.10
18504;BME280;9381;54.244;10.074;2023-04-26T11:20:39;100991.09;;;12.94;65.96
18504;BME280;9381;54.244;10.074;2023-04-26T11:25:39;100996.78;;;12.19;66.58
18504;BME280;9381;54.244;10.074;2023-04-26T11:30:40;100995.44;;;13.31;66.01
18504;BME280;9381;54.244;10.074;2023-04-26T11:35:40;100981.44;;;14.57;63.30
18504;BME280;9381;54.244;10.074;2023-04-26T11:40:41;100981.94;;;15.39;60.76
18504;BME280;9381;54.244;10.074;2023-04-26T11:45:41;100984.94;;;15.94;58.27
18504;BME280;9381;54.244;10.074;2023-04-26T11:50:42;100991.22;;;16.11;57.34
18504;BME280;9381;54.244;10.074;2023-04-26T11:55:43;100978.50;;;15.44;54.25
18504;BME280;9381;54.244;10.074;2023-04-26T12:00:57;101005.53;;;13.90;56.89
18504;BME280;9381;54.244;10.074;2023-04-26T12:05:58;101023.91;;;12.44;66.00
18504;BME280;9381;54.244;10.074;2023-04-26T12:11:00;101029.56;;;11.37;68.35
18504;BME280;9381;54.244;10.074;2023-04-26T12:16:07;101027.38;;;11.52;69.77
18504;BME280;9381;54.244;10.074;2023-04-26T12:21:07;101022.16;;;12.98;66.31
18504;BME280;9381;54.244;10.074;2023-04-26T12:26:07;101014.84;;;13.53;61.88
18504;BME280;9381;54.244;10.074;2023-04-26T12:31:11;101014.19;;;14.51;61.88
18504;BME280;9381;54.244;10.074;2023-04-26T12:36:12;101031.13;;;13.82;59.23
18504;BME280;9381;54.244;10.074;2023-04-26T12:41:12;101043.22;;;12.29;65.41
18504;BME280;9381;54.244;10.074;2023-04-26T12:46:13;101066.25;;;11.20;70.92
18504;BME280;9381;54.244;10.074;2023-04-26T12:51:13;101050.28;;;10.86;73.09
18504;BME280;9381;54.244;10.074;2023-04-26T12:56:13;101050.47;;;10.91;72.41
18504;BME280;9381;54.244;10.074;2023-04-26T13:01:15;101039.81;;;11.22;70.01
18504;BME280;9381;54.244;10.074;2023-04-26T13:06:15;101044.00;;;11.68;67.89
18504;BME280;9381;54.244;10.074;2023-04-26T13:11:16;101040.56;;;12.47;65.26
18504;BME280;9381;54.244;10.074;2023-04-26T13:16:17;101030.88;;;12.33;61.89
18504;BME280;9381;54.244;10.074;2023-04-26T13:21:17;101035.34;;;12.70;63.58
18504;BME280;9381;54.244;10.074;2023-04-26T13:26:17;101022.75;;;13.36;56.81
18504;BME280;9381;54.244;10.074;2023-04-26T13:31:18;101037.09;;;13.25;54.79
18504;BME280;9381;54.244;10.074;2023-04-26T13:36:19;101045.53;;;12.99;55.01
18504;BME280;9381;54.244;10.074;2023-04-26T13:41:19;101028.50;;;13.28;55.58
18504;BME280;9381;54.244;10.074;2023-04-26T13:46:21;101031.03;;;13.59;53.50
18504;BME280;9381;54.244;10.074;2023-04-26T13:51:22;101042.16;;;13.40;53.68
18504;BME280;9381;54.244;10.074;2023-04-26T13:56:24;101050.81;;;12.94;56.57
18504;BME280;9381;54.244;10.074;2023-04-26T14:01:24;101043.22;;;13.21;58.02
18504;BME280;9381;54.244;10.074;2023-04-26T14:06:25;101044.13;;;12.90;58.08
18504;BME280;9381;54.244;10.074;2023-04-26T14:11:26;101058.16;;;12.87;57.16
18504;BME280;9381;54.244;10.074;2023-04-26T14:16:27;101053.16;;;12.35;55.33
18504;BME280;9381;54.244;10.074;2023-04-26T14:21:27;101058.47;;;11.93;55.00
18504;BME280;9381;54.244;10.074;2023-04-26T14:26:27;101063.16;;;11.73;57.93
18504;BME280;9381;54.244;10.074;2023-04-26T14:31:28;101061.22;;;12.17;58.82
18504;BME280;9381;54.244;10.074;2023-04-26T14:36:29;101066.81;;;12.53;57.61
18504;BME280;9381;54.244;10.074;2023-04-26T14:41:29;101054.25;;;12.83;56.34
18504;BME280;9381;54.244;10.074;2023-04-26T14:46:30;101062.81;;;12.80;52.43
18504;BME280;9381;54.244;10.074;2023-04-26T14:51:30;101057.97;;;12.82;52.33
18504;BME280;9381;54.244;10.074;2023-04-26T14:56:34;101056.84;;;12.47;54.06
18504;BME280;9381;54.244;10.074;2023-04-26T15:01:34;101069.09;;;12.25;54.09
18504;BME280;9381;54.244;10.074;2023-04-26T15:06:35;101078.22;;;12.37;56.00
18504;BME280;9381;54.244;10.074;2023-04-26T15:11:35;101068.38;;;12.67;56.87
18504;BME280;9381;54.244;10.074;2023-04-26T15:16:36;101083.97;;;12.47;56.23
18504;BME280;9381;54.244;10.074;2023-04-26T15:21:36;101094.53;;;11.93;55.18
18504;BME280;9381;54.244;10.074;2023-04-26T15:26:36;101085.25;;;11.76;55.69
18504;BME280;9381;54.244;10.074;2023-04-26T15:31:37;101087.50;;;11.79;56.79
18504;BME280;9381;54.244;10.074;2023-04-26T15:36:37;101096.13;;;11.63;54.15
18504;BME280;9381;54.244;10.074;2023-04-26T15:41:38;101084.03;;;11.66;55.27
18504;BME280;9381;54.244;10.074;2023-04-26T15:46:38;101088.88;;;11.58;55.64
18504;BME280;9381;54.244;10.074;2023-04-26T15:51:39;101090.28;;;11.67;53.44
18504;BME280;9381;54.244;10.074;2023-04-26T15:56:39;101085.94;;;11.52;53.41
18504;BME280;9381;54.244;10.074;2023-04-26T16:01:40;101093.66;;;11.43;54.79
18504;BME280;9381;54.244;10.074;2023-04-26T16:06:40;101090.28;;;11.53;57.71
18504;BME280;9381;54.244;10.074;2023-04-26T16:11:41;101100.72;;;11.57;56.68
18504;BME280;9381;54.244;10.074;2023-04-26T16:16:41;101101.97;;;11.54;57.67
18504;BME280;9381;54.244;10.074;2023-04-26T16:21:41;101103.69;;;11.36;56.89
18504;BME280;9381;54.244;10.074;2023-04-26T16:26:42;101104.56;;;11.30;59.62
18504;BME280;9381;54.244;10.074;2023-04-26T16:31:42;101107.09;;;10.99;63.22
18504;BME280;9381;54.244;10.074;2023-04-26T16:36:43;101106.47;;;11.10;63.99
18504;BME280;9381;54.244;10.074;2023-04-26T16:41:44;101104.41;;;11.05;63.81
18504;BME280;9381;54.244;10.074;2023-04-26T16:46:44;101108.97;;;11.05;63.77
18504;BME280;9381;54.244;10.074;2023-04-26T16:51:44;101120.84;;;10.91;53.94
18504;BME280;9381;54.244;10.074;2023-04-26T16:56:52;101130.03;;;10.64;52.76
18504;BME280;9381;54.244;10.074;2023-04-26T17:01:53;101125.84;;;10.55;55.20
18504;BME280;9381;54.244;10.074;2023-04-26T17:06:53;101122.69;;;10.45;53.30
18504;BME280;9381;54.244;10.074;2023-04-26T17:11:54;101115.44;;;10.45;54.53
18504;BME280;9381;54.244;10.074;2023-04-26T17:16:54;101134.97;;;10.41;57.34
18504;BME280;9381;54.244;10.074;2023-04-26T17:21:55;101137.84;;;10.13;59.49
18504;BME280;9381;54.244;10.074;2023-04-26T17:26:55;101141.09;;;10.02;61.63
18504;BME280;9381;54.244;10.074;2023-04-26T17:31:55;101141.97;;;10.09;63.82
18504;BME280;9381;54.244;10.074;2023-04-26T17:36:55;101144.19;;;9.93;65.27
18504;BME280;9381;54.244;10.074;2023-04-26T17:41:56;101149.78;;;9.98;65.55
18504;BME280;9381;54.244;10.074;2023-04-26T17:46:56;101151.44;;;9.99;65.93
18504;BME280;9381;54.244;10.074;2023-04-26T17:51:57;101146.44;;;9.83;67.36
18504;BME280;9381;54.244;10.074;2023-04-26T17:56:57;101159.28;;;9.81;66.47
18504;BME280;9381;54.244;10.074;2023-04-26T18:01:58;101160.56;;;9.85;66.74
18504;BME280;9381;54.244;10.074;2023-04-26T18:06:58;101162.19;;;9.73;66.93
18504;BME280;9381;54.244;10.074;2023-04-26T18:11:58;101167.59;;;9.73;68.71
18504;BME280;9381;54.244;10.074;2023-04-26T18:16:59;101173.66;;;9.47;66.17
18504;BME280;9381;54.244;10.074;2023-04-26T18:21:59;101167.81;;;9.44;66.78
18504;BME280;9381;54.244;10.074;2023-04-26T18:27:00;101178.59;;;9.10;66.84
18504;BME280;9381;54.244;10.074;2023-04-26T18:32:01;101179.13;;;8.99;67.07
18504;BME280;9381;54.244;10.074;2023-04-26T18:37:02;101181.66;;;9.07;66.23
18504;BME280;9381;54.244;10.074;2023-04-26T18:42:03;101183.41;;;8.66;67.57
18504;BME280;9381;54.244;10.074;2023-04-26T18:47:04;101190.06;;;8.70;68.64
18504;BME280;9381;54.244;10.074;2023-04-26T18:52:04;101202.34;;;8.72;68.04
18504;BME280;9381;54.244;10.074;2023-04-26T18:57:07;101189.03;;;8.71;68.47
18504;BME280;9381;54.244;10.074;2023-04-26T19:02:09;101197.91;;;8.65;68.59
18504;BME280;9381;54.244;10.074;2023-04-26T19:07:10;101205.22;;;8.50;69.65
18504;BME280;9381;54.244;10.074;2023-04-26T19:12:11;101212.38;;;8.22;71.01
18504;BME280;9381;54.244;10.074;2023-04-26T19:17:11;101211.91;;;8.19;72.13
18504;BME280;9381;54.244;10.074;2023-04-26T19:22:11;101204.28;;;8.08;72.13
18504;BME280;9381;54.244;10.074;2023-04-26T19:27:12;101220.19;;;8.17;72.59
18504;BME280;9381;54.244;10.074;2023-04-26T19:32:12;101219.25;;;8.10;73.25
18504;BME280;9381;54.244;10.074;2023-04-26T19:37:13;101233.19;;;8.28;73.55
18504;BME280;9381;54.244;10.074;2023-04-26T19:42:13;101232.13;;;8.44;74.54
18504;BME280;9381;54.244;10.074;2023-04-26T19:47:14;101235.50;;;8.52;73.87
18504;BME280;9381;54.244;10.074;2023-04-26T19:52:14;101226.91;;;8.42;74.03
18504;BME280;9381;54.244;10.074;2023-04-26T19:57:15;101217.13;;;8.20;74.50
18504;BME280;9381;54.244;10.074;2023-04-26T20:02:15;101217.19;;;8.12;74.90
18504;BME280;9381;54.244;10.074;2023-04-26T20:07:15;101233.75;;;7.80;75.06
18504;BME280;9381;54.244;10.074;2023-04-26T20:12:16;101229.50;;;7.71;75.04
18504;BME280;9381;54.244;10.074;2023-04-26T20:17:16;101227.19;;;7.54;76.25
18504;BME280;9381;54.244;10.074;2023-04-26T20:22:17;101233.13;;;7.49;76.20
18504;BME280;9381;54.244;10.074;2023-04-26T20:27:17;101230.88;;;7.38;77.09
18504;BME280;9381;54.244;10.074;2023-04-26T20:32:17;101235.72;;;7.43;76.68
18504;BME280;9381;54.244;10.074;2023-04-26T20:37:18;101239.66;;;7.18;79.03
18504;BME280;9381;54.244;10.074;2023-04-26T20:42:18;101236.88;;;7.11;79.97
18504;BME280;9381;54.244;10.074;2023-04-26T20:47:18;101242.38;;;6.95;81.36
18504;BME280;9381;54.244;10.074;2023-04-26T20:52:19;101251.34;;;7.10;81.80
18504;BME280;9381;54.244;10.074;2023-04-26T20:57:19;101252.41;;;7.01;82.64
18504;BME280;9381;54.244;10.074;2023-04-26T21:02:20;101257.09;;;6.85;84.75
18504;BME280;9381;54.244;10.074;2023-04-26T21:07:20;101247.75;;;6.95;85.74
18504;BME280;9381;54.244;10.074;2023-04-26T21:12:20;101256.50;;;7.12;85.05
18504;BME280;9381;54.244;10.074;2023-04-26T21:17:20;101248.06;;;7.00;85.67
18504;BME280;9381;54.244;10.074;2023-04-26T21:22:21;101259.59;;;6.86;85.51
18504;BME280;9381;54.244;10.074;2023-04-26T21:27:21;101256.38;;;6.91;85.47
18504;BME280;9381;54.244;10.074;2023-04-26T21:32:22;101256.84;;;6.72;86.75
18504;BME280;9381;54.244;10.074;2023-04-26T21:37:22;101259.84;;;6.54;88.24
18504;BME280;9381;54.244;10.074;2023-04-26T21:42:23;101259.31;;;6.28;89.52
18504;BME280;9381;54.244;10.074;2023-04-26T21:47:23;101270.75;;;6.22;91.59
18504;BME280;9381;54.244;10.074;2023-04-26T21:52:24;101269.09;;;6.21;90.12
18504;BME280;9381;54.244;10.074;2023-04-26T21:57:25;101267.84;;;6.01;91.74
18504;BME280;9381;54.244;10.074;2023-04-26T22:02:25;101276.06;;;6.00;91.85
18504;BME280;9381;54.244;10.074;2023-04-26T22:07:25;101265.50;;;5.98;91.45
18504;BME280;9381;54.244;10.074;2023-04-26T22:12:26;101265.44;;;6.06;90.87
18504;BME280;9381;54.244;10.074;2023-04-26T22:17:26;101262.16;;;5.88;91.58
18504;BME280;9381;54.244;10.074;2023-04-26T22:22:26;101272.44;;;5.77;91.56
18504;BME280;9381;54.244;10.074;2023-04-26T22:27:27;101274.91;;;5.78;91.63
18504;BME280;9381;54.244;10.074;2023-04-26T22:32:28;101285.88;;;5.85;92.60
18504;BME280;9381;54.244;10.074;2023-04-26T22:37:28;101285.00;;;5.76;92.95
18504;BME280;9381;54.244;10.074;2023-04-26T22:42:28;101292.25;;;5.68;92.74
18504;BME280;9381;54.244;10.074;2023-04-26T22:47:29;101289.56;;;5.68;93.38
18504;BME280;9381;54.244;10.074;2023-04-26T22:52:29;101292.56;;;5.73;93.05
18504;BME280;9381;54.244;10.074;2023-04-26T22:57:30;101294.44;;;5.57;93.09
18504;BME280;9381;54.244;10.074;2023-04-26T23:02:31;101300.63;;;5.65;92.34
18504;BME280;9381;54.244;10.074;2023-04-26T23:07:32;101300.16;;;5.54;92.14
18504;BME280;9381;54.244;10.074;2023-04-26T23:12:32;101310.19;;;5.59;92.09
18504;BME280;9381;54.244;10.074;2023-04-26T23:17:33;101304.19;;;5.50;92.38
18504;BME280;9381;54.244;10.074;2023-04-26T23:22:33;101308.72;;;5.33;92.89
18504;BME280;9381;54.244;10.074;2023-04-26T23:27:34;101316.59;;;5.43;92.12
18504;BME280;9381;54.244;10.074;2023-04-26T23:32:34;101310.91;;;5.54;91.65
18504;BME280;9381;54.244;10.074;2023-04-26T23:37:35;101310.03;;;5.53;91.75
18504;BME280;9381;54.244;10.074;2023-04-26T23:42:35;101311.56;;;5.32;92.61
18504;BME280;9381;54.244;10.074;2023-04-26T23:47:36;101315.63;;;5.28;94.50
18504;BME280;9381;54.244;10.074;2023-04-26T23:52:36;101314.25;;;5.24;94.70
18504;BME280;9381;54.244;10.074;2023-04-26T23:57:36;101321.63;;;5.30;94.10
